sensor_id;sensor_type;location;lat;lon;timestamp;temperature;humidity
254;DHT22;590;48.772;8.846;2023-02-03T00:00:32;16.30;1.40
254;DHT22;590;48.772;8.846;2023-02-03T00:03:00;16.30;1.40
254;DHT22;590;48.772;8.846;2023-02-03T00:05:28;16.30;1.40
254;DHT22;590;48.772;8.846;2023-02-03T00:07:58;16.30;1.40
254;DHT22;590;48.772;8.846;2023-02-03T00:10:26;16.30;1.30
254;DHT22;590;48.772;8.846;2023-02-03T00:12:55;16.30;1.30
254;DHT22;590;48.772;8.846;2023-02-03T00:15:26;16.30;1.30
254;DHT22;590;48.772;8.846;2023-02-03T00:17:54;16.30;1.30
254;DHT22;590;48.772;8.846;2023-02-03T00:20:23;16.30;1.30
254;DHT22;590;48.772;8.846;2023-02-03T00:22:52;16.30;1.30
254;DHT22;590;48.772;8.846;2023-02-03T00:25:21;16.30;1.30
254;DHT22;590;48.772;8.846;2023-02-03T00:27:49;16.30;1.40
254;DHT22;590;48.772;8.846;2023-02-03T00:30:17;16.30;1.40
254;DHT22;590;48.772;8.846;2023-02-03T00:32:45;16.30;1.40
254;DHT22;590;48.772;8.846;2023-02-03T00:35:13;16.30;1.40
254;DHT22;590;48.772;8.846;2023-02-03T00:37:41;16.30;1.40
254;DHT22;590;48.772;8.846;2023-02-03T00:40:11;16.30;1.40
254;DHT22;590;48.772;8.846;2023-02-03T00:42:42;16.30;1.40
254;DHT22;590;48.772;8.846;2023-02-03T00:45:10;16.30;1.40
254;DHT22;590;48.772;8.846;2023-02-03T00:47:38;16.30;1.40
254;DHT22;590;48.772;8.846;2023-02-03T00:50:06;16.30;1.40
254;DHT22;590;48.772;8.846;2023-02-03T00:52:34;16.30;1.50
254;DHT22;590;48.772;8.846;2023-02-03T00:55:03;16.30;1.40
254;DHT22;590;48.772;8.846;2023-02-03T00:57:32;16.30;1.30
254;DHT22;590;48.772;8.846;2023-02-03T01:00:01;16.30;1.30
254;DHT22;590;48.772;8.846;2023-02-03T01:02:29;16.30;1.40
254;DHT22;590;48.772;8.846;2023-02-03T01:04:57;16.30;1.40
254;DHT22;590;48.772;8.846;2023-02-03T01:07:25;16.30;1.40
254;DHT22;590;48.772;8.846;2023-02-03T01:09:56;16.30;1.40
254;DHT22;590;48.772;8.846;2023-02-03T01:12:24;16.30;1.40
254;DHT22;590;48.772;8.846;2023-02-03T01:14:52;16.30;1.40
254;DHT22;590;48.772;8.846;2023-02-03T01:17:22;16.30;1.50
254;DHT22;590;48.772;8.846;2023-02-03T01:19:51;16.30;1.50
254;DHT22;590;48.772;8.846;2023-02-03T01:22:19;16.30;1.50
254;DHT22;590;48.772;8.846;2023-02-03T01:24:47;16.30;1.50
254;DHT22;590;48.772;8.846;2023-02-03T01:27:17;16.30;1.40
254;DHT22;590;48.772;8.846;2023-02-03T01:29:47;16.30;1.50
254;DHT22;590;48.772;8.846;2023-02-03T01:32:25;16.30;1.50
254;DHT22;590;48.772;8.846;2023-02-03T01:34:53;16.30;1.50
254;DHT22;590;48.772;8.846;2023-02-03T01:37:22;16.30;1.50
254;DHT22;590;48.772;8.846;2023-02-03T01:39:50;16.30;1.50
254;DHT22;590;48.772;8.846;2023-02-03T01:42:21;16.30;1.50
254;DHT22;590;48.772;8.846;2023-02-03T01:44:50;16.30;1.50
254;DHT22;590;48.772;8.846;2023-02-03T01:47:25;16.30;1.60
254;DHT22;590;48.772;8.846;2023-02-03T01:50:00;16.30;1.60
254;DHT22;590;48.772;8.846;2023-02-03T01:52:30;16.30;1.50
254;DHT22;590;48.772;8.846;2023-02-03T01:55:01;16.30;1.60
254;DHT22;590;48.772;8.846;2023-02-03T01:57:32;16.30;1.50
254;DHT22;590;48.772;8.846;2023-02-03T02:00:03;16.30;1.50
254;DHT22;590;48.772;8.846;2023-02-03T02:02:32;16.30;1.50
254;DHT22;590;48.772;8.846;2023-02-03T02:05:04;16.30;1.60
254;DHT22;590;48.772;8.846;2023-02-03T02:07:33;16.30;1.50
254;DHT22;590;48.772;8.846;2023-02-03T02:10:21;16.30;1.50
254;DHT22;590;48.772;8.846;2023-02-03T02:12:49;16.30;1.50
254;DHT22;590;48.772;8.846;2023-02-03T02:15:18;16.30;1.50
254;DHT22;590;48.772;8.846;2023-02-03T02:18:17;16.30;1.50
254;DHT22;590;48.772;8.846;2023-02-03T02:27:25;16.30;1.60
254;DHT22;590;48.772;8.846;2023-02-03T02:30:17;16.30;1.60
254;DHT22;590;48.772;8.846;2023-02-03T02:33:01;16.20;1.50
254;DHT22;590;48.772;8.846;2023-02-03T02:35:49;16.30;1.60
254;DHT22;590;48.772;8.846;2023-02-03T02:38:27;16.20;1.50
254;DHT22;590;48.772;8.846;2023-02-03T02:41:03;16.20;1.50
254;DHT22;590;48.772;8.846;2023-02-03T02:43:38;16.20;1.60
254;DHT22;590;48.772;8.846;2023-02-03T02:46:10;16.30;1.60
254;DHT22;590;48.772;8.846;2023-02-03T02:48:46;16.30;1.60
254;DHT22;590;48.772;8.846;2023-02-03T02:51:17;16.30;1.60
254;DHT22;590;48.772;8.846;2023-02-03T02:53:50;16.20;1.50
254;DHT22;590;48.772;8.846;2023-02-03T02:56:20;16.30;1.60
254;DHT22;590;48.772;8.846;2023-02-03T02:58:49;16.20;1.50
254;DHT22;590;48.772;8.846;2023-02-03T03:01:18;16.30;2.20
254;DHT22;590;48.772;8.846;2023-02-03T03:03:48;16.30;1.60
254;DHT22;590;48.772;8.846;2023-02-03T03:06:19;16.30;1.60
254;DHT22;590;48.772;8.846;2023-02-03T03:08:52;16.30;1.70
254;DHT22;590;48.772;8.846;2023-02-03T03:11:22;16.30;1.60
254;DHT22;590;48.772;8.846;2023-02-03T03:13:53;16.30;1.70
254;DHT22;590;48.772;8.846;2023-02-03T03:16:24;16.30;1.60
254;DHT22;590;48.772;8.846;2023-02-03T03:18:56;16.20;1.50
254;DHT22;590;48.772;8.846;2023-02-03T03:21:29;16.30;1.60
254;DHT22;590;48.772;8.846;2023-02-03T03:24:01;16.30;1.60
254;DHT22;590;48.772;8.846;2023-02-03T03:26:34;16.20;1.50
254;DHT22;590;48.772;8.846;2023-02-03T03:29:08;16.30;1.60
254;DHT22;590;48.772;8.846;2023-02-03T03:31:38;16.20;1.60
254;DHT22;590;48.772;8.846;2023-02-03T03:34:09;16.30;1.60
254;DHT22;590;48.772;8.846;2023-02-03T03:36:41;16.20;1.50
254;DHT22;590;48.772;8.846;2023-02-03T03:39:15;16.30;1.70
254;DHT22;590;48.772;8.846;2023-02-03T03:41:53;16.30;1.60
254;DHT22;590;48.772;8.846;2023-02-03T03:44:26;16.20;1.60
254;DHT22;590;48.772;8.846;2023-02-03T03:47:03;16.20;1.60
254;DHT22;590;48.772;8.846;2023-02-03T03:49:35;16.20;1.60
254;DHT22;590;48.772;8.846;2023-02-03T03:52:07;16.20;1.50
254;DHT22;590;48.772;8.846;2023-02-03T03:54:37;16.30;1.70
254;DHT22;590;48.772;8.846;2023-02-03T03:57:11;16.20;1.60
254;DHT22;590;48.772;8.846;2023-02-03T03:59:46;16.30;1.60
254;DHT22;590;48.772;8.846;2023-02-03T04:02:26;16.20;1.60
254;DHT22;590;48.772;8.846;2023-02-03T04:04:58;16.30;1.60
254;DHT22;590;48.772;8.846;2023-02-03T04:07:37;16.20;1.50
254;DHT22;590;48.772;8.846;2023-02-03T04:10:19;16.20;1.60
254;DHT22;590;48.772;8.846;2023-02-03T04:12:49;16.20;1.50
254;DHT22;590;48.772;8.846;2023-02-03T04:15:17;16.20;1.60
254;DHT22;590;48.772;8.846;2023-02-03T04:17:45;16.30;1.60
254;DHT22;590;48.772;8.846;2023-02-03T04:20:17;16.20;1.50
254;DHT22;590;48.772;8.846;2023-02-03T04:22:48;16.30;1.50
254;DHT22;590;48.772;8.846;2023-02-03T04:25:34;16.30;1.60
254;DHT22;590;48.772;8.846;2023-02-03T04:28:03;16.30;1.60
254;DHT22;590;48.772;8.846;2023-02-03T04:30:34;16.30;1.50
254;DHT22;590;48.772;8.846;2023-02-03T04:33:03;16.30;1.40
254;DHT22;590;48.772;8.846;2023-02-03T04:35:32;16.30;1.40
254;DHT22;590;48.772;8.846;2023-02-03T04:38:00;16.30;1.40
254;DHT22;590;48.772;8.846;2023-02-03T04:40:35;16.30;1.30
254;DHT22;590;48.772;8.846;2023-02-03T04:43:06;16.40;1.50
254;DHT22;590;48.772;8.846;2023-02-03T04:45:34;16.40;1.40
254;DHT22;590;48.772;8.846;2023-02-03T04:48:03;16.40;1.40
254;DHT22;590;48.772;8.846;2023-02-03T04:50:38;16.40;1.50
254;DHT22;590;48.772;8.846;2023-02-03T04:53:07;16.40;1.40
254;DHT22;590;48.772;8.846;2023-02-03T04:55:35;16.40;1.40
254;DHT22;590;48.772;8.846;2023-02-03T04:58:08;16.40;1.40
254;DHT22;590;48.772;8.846;2023-02-03T05:00:36;16.40;1.40
254;DHT22;590;48.772;8.846;2023-02-03T05:03:05;16.40;1.40
254;DHT22;590;48.772;8.846;2023-02-03T05:05:33;16.40;1.40
254;DHT22;590;48.772;8.846;2023-02-03T05:08:03;16.40;1.40
254;DHT22;590;48.772;8.846;2023-02-03T05:10:31;16.40;1.40
254;DHT22;590;48.772;8.846;2023-02-03T05:12:59;16.50;2.10
254;DHT22;590;48.772;8.846;2023-02-03T05:15:28;16.50;1.50
254;DHT22;590;48.772;8.846;2023-02-03T05:17:56;16.50;1.50
254;DHT22;590;48.772;8.846;2023-02-03T05:20:24;16.50;1.50
254;DHT22;590;48.772;8.846;2023-02-03T05:22:52;16.50;1.50
254;DHT22;590;48.772;8.846;2023-02-03T05:25:22;16.50;1.50
254;DHT22;590;48.772;8.846;2023-02-03T05:27:50;16.50;1.50
254;DHT22;590;48.772;8.846;2023-02-03T05:30:18;16.50;1.50
254;DHT22;590;48.772;8.846;2023-02-03T05:32:47;16.50;1.50
254;DHT22;590;48.772;8.846;2023-02-03T05:35:15;16.50;1.50
254;DHT22;590;48.772;8.846;2023-02-03T05:37:48;16.50;1.50
254;DHT22;590;48.772;8.846;2023-02-03T05:40:19;16.50;1.50
254;DHT22;590;48.772;8.846;2023-02-03T05:43:05;16.50;1.50
254;DHT22;590;48.772;8.846;2023-02-03T05:45:34;16.50;1.50
254;DHT22;590;48.772;8.846;2023-02-03T05:48:03;16.50;1.50
254;DHT22;590;48.772;8.846;2023-02-03T05:50:33;16.50;1.50
254;DHT22;590;48.772;8.846;2023-02-03T05:53:09;16.50;1.50
254;DHT22;590;48.772;8.846;2023-02-03T05:55:37;16.50;1.60
254;DHT22;590;48.772;8.846;2023-02-03T05:58:06;16.50;1.60
254;DHT22;590;48.772;8.846;2023-02-03T06:00:35;16.50;1.60
254;DHT22;590;48.772;8.846;2023-02-03T06:03:05;16.50;1.60
254;DHT22;590;48.772;8.846;2023-02-03T06:05:36;16.50;1.60
254;DHT22;590;48.772;8.846;2023-02-03T06:08:09;16.50;1.60
254;DHT22;590;48.772;8.846;2023-02-03T06:10:38;16.50;1.60
254;DHT22;590;48.772;8.846;2023-02-03T06:13:11;16.50;1.60
254;DHT22;590;48.772;8.846;2023-02-03T06:15:41;16.50;1.60
254;DHT22;590;48.772;8.846;2023-02-03T06:18:09;16.50;1.70
254;DHT22;590;48.772;8.846;2023-02-03T06:20:43;16.50;1.70
254;DHT22;590;48.772;8.846;2023-02-03T06:23:11;16.50;1.60
254;DHT22;590;48.772;8.846;2023-02-03T06:25:41;16.50;1.60
254;DHT22;590;48.772;8.846;2023-02-03T06:28:17;16.50;1.60
254;DHT22;590;48.772;8.846;2023-02-03T06:30:48;16.50;1.60
254;DHT22;590;48.772;8.846;2023-02-03T06:33:17;16.50;1.70
254;DHT22;590;48.772;8.846;2023-02-03T06:35:45;16.50;1.60
254;DHT22;590;48.772;8.846;2023-02-03T06:38:13;16.50;1.60
254;DHT22;590;48.772;8.846;2023-02-03T06:40:41;16.50;1.70
254;DHT22;590;48.772;8.846;2023-02-03T06:43:09;16.60;1.70
254;DHT22;590;48.772;8.846;2023-02-03T06:45:43;16.60;1.70
254;DHT22;590;48.772;8.846;2023-02-03T06:48:12;16.50;1.60
254;DHT22;590;48.772;8.846;2023-02-03T06:50:40;16.60;1.70
254;DHT22;590;48.772;8.846;2023-02-03T06:53:09;16.60;1.70
254;DHT22;590;48.772;8.846;2023-02-03T06:55:37;16.50;1.60
254;DHT22;590;48.772;8.846;2023-02-03T06:58:05;16.50;1.60
254;DHT22;590;48.772;8.846;2023-02-03T07:00:33;16.60;1.70
254;DHT22;590;48.772;8.846;2023-02-03T07:03:46;16.60;1.70
254;DHT22;590;48.772;8.846;2023-02-03T07:06:15;16.60;1.70
254;DHT22;590;48.772;8.846;2023-02-03T07:08:49;16.60;1.80
254;DHT22;590;48.772;8.846;2023-02-03T07:11:34;16.60;1.70
254;DHT22;590;48.772;8.846;2023-02-03T07:14:23;16.60;1.70
254;DHT22;590;48.772;8.846;2023-02-03T07:16:54;16.50;1.70
254;DHT22;590;48.772;8.846;2023-02-03T07:19:24;16.60;1.80
254;DHT22;590;48.772;8.846;2023-02-03T07:21:53;16.60;1.80
254;DHT22;590;48.772;8.846;2023-02-03T07:24:30;16.60;1.80
254;DHT22;590;48.772;8.846;2023-02-03T07:27:16;16.60;1.80
254;DHT22;590;48.772;8.846;2023-02-03T07:29:54;16.60;1.80
254;DHT22;590;48.772;8.846;2023-02-03T07:32:22;16.50;1.70
254;DHT22;590;48.772;8.846;2023-02-03T07:34:55;16.60;1.80
254;DHT22;590;48.772;8.846;2023-02-03T07:37:29;16.60;1.80
254;DHT22;590;48.772;8.846;2023-02-03T07:39:58;16.60;1.80
254;DHT22;590;48.772;8.846;2023-02-03T07:42:46;16.60;1.80
254;DHT22;590;48.772;8.846;2023-02-03T07:45:25;16.50;1.70
254;DHT22;590;48.772;8.846;2023-02-03T07:47:54;16.60;1.80
254;DHT22;590;48.772;8.846;2023-02-03T07:50:24;16.60;1.80
254;DHT22;590;48.772;8.846;2023-02-03T07:52:52;16.60;1.80
254;DHT22;590;48.772;8.846;2023-02-03T07:55:23;16.60;1.80
254;DHT22;590;48.772;8.846;2023-02-03T07:57:58;16.60;1.80
254;DHT22;590;48.772;8.846;2023-02-03T08:00:38;16.60;1.80
254;DHT22;590;48.772;8.846;2023-02-03T08:03:08;16.60;1.80
254;DHT22;590;48.772;8.846;2023-02-03T08:05:38;16.60;2.40
254;DHT22;590;48.772;8.846;2023-02-03T08:08:09;16.60;1.80
254;DHT22;590;48.772;8.846;2023-02-03T08:10:37;16.60;1.80
254;DHT22;590;48.772;8.846;2023-02-03T08:13:06;16.60;1.80
254;DHT22;590;48.772;8.846;2023-02-03T08:15:37;16.60;1.80
254;DHT22;590;48.772;8.846;2023-02-03T08:18:06;16.60;1.80
254;DHT22;590;48.772;8.846;2023-02-03T08:20:40;16.60;1.90
254;DHT22;590;48.772;8.846;2023-02-03T08:23:36;16.60;1.80
254;DHT22;590;48.772;8.846;2023-02-03T08:26:29;16.60;1.80
254;DHT22;590;48.772;8.846;2023-02-03T08:29:01;16.60;1.80
254;DHT22;590;48.772;8.846;2023-02-03T08:31:30;16.60;1.90
254;DHT22;590;48.772;8.846;2023-02-03T08:34:03;16.60;1.90
254;DHT22;590;48.772;8.846;2023-02-03T08:36:42;16.60;1.90
254;DHT22;590;48.772;8.846;2023-02-03T08:39:19;16.60;1.90
254;DHT22;590;48.772;8.846;2023-02-03T08:42:19;16.60;1.90
254;DHT22;590;48.772;8.846;2023-02-03T08:44:58;16.60;1.90
254;DHT22;590;48.772;8.846;2023-02-03T08:47:41;16.60;1.90
254;DHT22;590;48.772;8.846;2023-02-03T08:50:28;16.60;1.90
254;DHT22;590;48.772;8.846;2023-02-03T08:53:19;16.60;1.90
254;DHT22;590;48.772;8.846;2023-02-03T08:59:45;16.60;2.00
254;DHT22;590;48.772;8.846;2023-02-03T09:06:36;16.60;2.00
254;DHT22;590;48.772;8.846;2023-02-03T09:10:01;16.60;2.00
254;DHT22;590;48.772;8.846;2023-02-03T09:12:44;16.60;2.00
254;DHT22;590;48.772;8.846;2023-02-03T09:15:36;16.60;2.00
254;DHT22;590;48.772;8.846;2023-02-03T09:18:26;16.60;2.00
254;DHT22;590;48.772;8.846;2023-02-03T09:21:00;16.60;2.00
254;DHT22;590;48.772;8.846;2023-02-03T09:23:36;16.60;2.00
254;DHT22;590;48.772;8.846;2023-02-03T09:26:25;16.60;2.00
254;DHT22;590;48.772;8.846;2023-02-03T09:29:01;16.60;2.00
254;DHT22;590;48.772;8.846;2023-02-03T09:31:49;16.60;2.00
254;DHT22;590;48.772;8.846;2023-02-03T09:34:58;16.60;2.00
254;DHT22;590;48.772;8.846;2023-02-03T09:37:28;16.60;2.10
254;DHT22;590;48.772;8.846;2023-02-03T09:40:16;16.60;2.10
254;DHT22;590;48.772;8.846;2023-02-03T09:42:58;16.60;2.10
254;DHT22;590;48.772;8.846;2023-02-03T09:45:30;16.60;2.10
254;DHT22;590;48.772;8.846;2023-02-03T09:48:21;16.60;2.10
254;DHT22;590;48.772;8.846;2023-02-03T09:51:19;16.60;2.10
254;DHT22;590;48.772;8.846;2023-02-03T09:54:47;16.60;2.00
254;DHT22;590;48.772;8.846;2023-02-03T10:01:01;16.60;2.10
254;DHT22;590;48.772;8.846;2023-02-03T10:04:11;16.60;2.10
254;DHT22;590;48.772;8.846;2023-02-03T10:07:04;16.50;2.00
254;DHT22;590;48.772;8.846;2023-02-03T10:09:59;16.60;2.10
254;DHT22;590;48.772;8.846;2023-02-03T10:13:06;16.60;2.10
254;DHT22;590;48.772;8.846;2023-02-03T10:16:03;16.60;2.10
254;DHT22;590;48.772;8.846;2023-02-03T10:18:40;16.60;2.10
254;DHT22;590;48.772;8.846;2023-02-03T10:21:15;16.60;2.20
254;DHT22;590;48.772;8.846;2023-02-03T10:23:47;16.60;2.20
254;DHT22;590;48.772;8.846;2023-02-03T10:26:20;16.60;2.10
254;DHT22;590;48.772;8.846;2023-02-03T10:28:53;16.60;2.20
254;DHT22;590;48.772;8.846;2023-02-03T10:31:25;16.60;2.10
254;DHT22;590;48.772;8.846;2023-02-03T10:33:59;16.60;2.10
254;DHT22;590;48.772;8.846;2023-02-03T10:36:36;16.60;2.10
254;DHT22;590;48.772;8.846;2023-02-03T10:39:18;16.60;2.10
254;DHT22;590;48.772;8.846;2023-02-03T10:41:51;16.60;2.20
254;DHT22;590;48.772;8.846;2023-02-03T10:44:29;16.60;2.10
254;DHT22;590;48.772;8.846;2023-02-03T10:47:01;16.60;2.20
254;DHT22;590;48.772;8.846;2023-02-03T10:49:30;16.60;2.50
254;DHT22;590;48.772;8.846;2023-02-03T10:52:00;16.60;2.10
254;DHT22;590;48.772;8.846;2023-02-03T10:54:39;16.60;2.20
254;DHT22;590;48.772;8.846;2023-02-03T10:57:11;16.60;2.20
254;DHT22;590;48.772;8.846;2023-02-03T10:59:44;16.60;2.10
254;DHT22;590;48.772;8.846;2023-02-03T11:02:21;16.60;2.10
254;DHT22;590;48.772;8.846;2023-02-03T11:05:10;16.60;2.20
254;DHT22;590;48.772;8.846;2023-02-03T11:07:39;16.60;2.10
254;DHT22;590;48.772;8.846;2023-02-03T11:10:29;16.60;2.20
254;DHT22;590;48.772;8.846;2023-02-03T11:13:12;16.60;2.20
254;DHT22;590;48.772;8.846;2023-02-03T11:15:52;16.60;2.10
254;DHT22;590;48.772;8.846;2023-02-03T11:18:53;16.60;2.10
254;DHT22;590;48.772;8.846;2023-02-03T11:21:27;16.60;2.10
254;DHT22;590;48.772;8.846;2023-02-03T11:24:13;16.60;2.20
254;DHT22;590;48.772;8.846;2023-02-03T11:26:45;16.60;2.30
254;DHT22;590;48.772;8.846;2023-02-03T11:29:18;16.60;2.20
254;DHT22;590;48.772;8.846;2023-02-03T11:31:53;16.60;2.20
254;DHT22;590;48.772;8.846;2023-02-03T11:34:26;16.60;2.20
254;DHT22;590;48.772;8.846;2023-02-03T11:36:55;16.60;2.20
254;DHT22;590;48.772;8.846;2023-02-03T11:39:27;16.60;2.20
254;DHT22;590;48.772;8.846;2023-02-03T11:42:01;16.60;2.20
254;DHT22;590;48.772;8.846;2023-02-03T11:44:36;16.60;2.20
254;DHT22;590;48.772;8.846;2023-02-03T11:47:09;16.60;2.20
254;DHT22;590;48.772;8.846;2023-02-03T11:50:06;16.60;2.20
254;DHT22;590;48.772;8.846;2023-02-03T11:52:47;16.60;2.20
254;DHT22;590;48.772;8.846;2023-02-03T11:55:40;16.60;2.20
254;DHT22;590;48.772;8.846;2023-02-03T11:58:27;16.60;2.20
254;DHT22;590;48.772;8.846;2023-02-03T12:01:10;16.60;2.30
254;DHT22;590;48.772;8.846;2023-02-03T12:04:12;16.60;2.30
254;DHT22;590;48.772;8.846;2023-02-03T12:07:06;16.60;2.30
254;DHT22;590;48.772;8.846;2023-02-03T12:09:48;16.60;2.30
254;DHT22;590;48.772;8.846;2023-02-03T12:12:37;16.60;2.40
254;DHT22;590;48.772;8.846;2023-02-03T12:15:23;16.60;2.30
254;DHT22;590;48.772;8.846;2023-02-03T12:18:14;16.60;2.20
254;DHT22;590;48.772;8.846;2023-02-03T12:21:03;16.60;2.20
254;DHT22;590;48.772;8.846;2023-02-03T12:23:42;16.60;2.30
254;DHT22;590;48.772;8.846;2023-02-03T12:26:20;16.60;2.30
254;DHT22;590;48.772;8.846;2023-02-03T12:28:57;16.60;2.30
254;DHT22;590;48.772;8.846;2023-02-03T12:31:34;16.60;2.30
254;DHT22;590;48.772;8.846;2023-02-03T12:34:11;16.60;2.20
254;DHT22;590;48.772;8.846;2023-02-03T12:36:50;16.60;2.40
254;DHT22;590;48.772;8.846;2023-02-03T12:39:24;16.60;2.20
254;DHT22;590;48.772;8.846;2023-02-03T12:41:58;16.60;2.30
254;DHT22;590;48.772;8.846;2023-02-03T12:44:42;16.60;2.30
254;DHT22;590;48.772;8.846;2023-02-03T12:47:15;16.60;2.30
254;DHT22;590;48.772;8.846;2023-02-03T12:49:56;16.60;2.30
254;DHT22;590;48.772;8.846;2023-02-03T12:52:37;16.60;2.30
254;DHT22;590;48.772;8.846;2023-02-03T12:55:17;16.60;2.30
254;DHT22;590;48.772;8.846;2023-02-03T12:57:50;16.60;2.20
254;DHT22;590;48.772;8.846;2023-02-03T13:00:34;16.60;2.30
254;DHT22;590;48.772;8.846;2023-02-03T13:03:22;16.60;2.30
254;DHT22;590;48.772;8.846;2023-02-03T13:06:01;16.60;2.30
254;DHT22;590;48.772;8.846;2023-02-03T13:08:35;16.60;2.30
254;DHT22;590;48.772;8.846;2023-02-03T13:11:18;16.60;2.30
254;DHT22;590;48.772;8.846;2023-02-03T13:13:51;16.60;2.30
254;DHT22;590;48.772;8.846;2023-02-03T13:16:25;16.60;2.40
254;DHT22;590;48.772;8.846;2023-02-03T13:18:58;16.60;2.30
254;DHT22;590;48.772;8.846;2023-02-03T13:21:28;16.60;2.40
254;DHT22;590;48.772;8.846;2023-02-03T13:23:58;16.60;2.40
254;DHT22;590;48.772;8.846;2023-02-03T13:26:52;16.60;2.40
254;DHT22;590;48.772;8.846;2023-02-03T13:29:40;16.60;2.40
254;DHT22;590;48.772;8.846;2023-02-03T13:32:18;16.60;2.40
254;DHT22;590;48.772;8.846;2023-02-03T13:35:08;16.60;2.40
254;DHT22;590;48.772;8.846;2023-02-03T13:37:50;16.60;2.50
254;DHT22;590;48.772;8.846;2023-02-03T13:40:36;16.60;2.40
254;DHT22;590;48.772;8.846;2023-02-03T13:43:13;16.60;2.50
254;DHT22;590;48.772;8.846;2023-02-03T13:46:03;16.60;2.40
254;DHT22;590;48.772;8.846;2023-02-03T13:48:35;16.60;2.50
254;DHT22;590;48.772;8.846;2023-02-03T13:51:07;16.60;2.40
254;DHT22;590;48.772;8.846;2023-02-03T13:53:36;16.60;2.50
254;DHT22;590;48.772;8.846;2023-02-03T13:56:08;16.60;2.40
254;DHT22;590;48.772;8.846;2023-02-03T13:58:58;16.60;2.50
254;DHT22;590;48.772;8.846;2023-02-03T14:01:32;16.60;2.40
254;DHT22;590;48.772;8.846;2023-02-03T14:04:03;16.60;2.50
254;DHT22;590;48.772;8.846;2023-02-03T14:06:59;16.60;2.50
254;DHT22;590;48.772;8.846;2023-02-03T14:09:45;16.60;2.40
254;DHT22;590;48.772;8.846;2023-02-03T14:12:31;16.60;2.40
254;DHT22;590;48.772;8.846;2023-02-03T14:15:14;16.60;2.50
254;DHT22;590;48.772;8.846;2023-02-03T14:21:18;16.70;2.50
254;DHT22;590;48.772;8.846;2023-02-03T14:23:57;16.70;2.30
254;DHT22;590;48.772;8.846;2023-02-03T14:26:35;16.70;2.40
254;DHT22;590;48.772;8.846;2023-02-03T14:29:07;16.60;2.40
254;DHT22;590;48.772;8.846;2023-02-03T14:31:54;16.60;2.30
254;DHT22;590;48.772;8.846;2023-02-03T14:34:34;16.60;2.40
254;DHT22;590;48.772;8.846;2023-02-03T14:37:19;16.60;2.40
254;DHT22;590;48.772;8.846;2023-02-03T14:40:20;16.60;2.40
254;DHT22;590;48.772;8.846;2023-02-03T14:43:23;16.60;2.40
254;DHT22;590;48.772;8.846;2023-02-03T14:46:07;16.60;2.40
254;DHT22;590;48.772;8.846;2023-02-03T14:48:57;16.60;2.50
254;DHT22;590;48.772;8.846;2023-02-03T14:52:04;16.60;2.50
254;DHT22;590;48.772;8.846;2023-02-03T14:54:48;16.50;2.40
254;DHT22;590;48.772;8.846;2023-02-03T14:57:34;16.60;2.60
254;DHT22;590;48.772;8.846;2023-02-03T15:00:34;16.60;2.30
254;DHT22;590;48.772;8.846;2023-02-03T15:03:24;16.60;2.40
254;DHT22;590;48.772;8.846;2023-02-03T15:06:00;16.60;2.40
254;DHT22;590;48.772;8.846;2023-02-03T15:08:38;16.60;2.50
254;DHT22;590;48.772;8.846;2023-02-03T15:11:25;16.60;2.40
254;DHT22;590;48.772;8.846;2023-02-03T15:13:55;16.60;2.40
254;DHT22;590;48.772;8.846;2023-02-03T15:16:29;16.60;2.40
254;DHT22;590;48.772;8.846;2023-02-03T15:19:16;16.60;2.40
254;DHT22;590;48.772;8.846;2023-02-03T15:21:45;16.60;2.40
254;DHT22;590;48.772;8.846;2023-02-03T15:24:14;16.60;2.40
254;DHT22;590;48.772;8.846;2023-02-03T15:26:45;16.60;2.50
254;DHT22;590;48.772;8.846;2023-02-03T15:29:19;16.60;2.50
254;DHT22;590;48.772;8.846;2023-02-03T15:31:51;16.60;2.50
254;DHT22;590;48.772;8.846;2023-02-03T15:34:25;16.60;3.10
254;DHT22;590;48.772;8.846;2023-02-03T15:36:57;16.60;2.50
254;DHT22;590;48.772;8.846;2023-02-03T15:39:42;16.60;2.50
254;DHT22;590;48.772;8.846;2023-02-03T15:42:16;16.60;2.50
254;DHT22;590;48.772;8.846;2023-02-03T15:44:52;16.60;2.50
254;DHT22;590;48.772;8.846;2023-02-03T15:47:27;16.60;2.50
254;DHT22;590;48.772;8.846;2023-02-03T15:50:21;16.60;2.60
254;DHT22;590;48.772;8.846;2023-02-03T15:52:52;16.60;2.60
254;DHT22;590;48.772;8.846;2023-02-03T15:55:28;16.60;2.60
254;DHT22;590;48.772;8.846;2023-02-03T15:57:59;16.50;2.50
254;DHT22;590;48.772;8.846;2023-02-03T16:00:33;16.60;2.60
254;DHT22;590;48.772;8.846;2023-02-03T16:03:05;16.60;2.70
254;DHT22;590;48.772;8.846;2023-02-03T16:05:41;16.60;3.20
254;DHT22;590;48.772;8.846;2023-02-03T16:08:34;16.60;2.60
254;DHT22;590;48.772;8.846;2023-02-03T16:11:25;16.60;2.60
254;DHT22;590;48.772;8.846;2023-02-03T16:13:54;16.60;2.70
254;DHT22;590;48.772;8.846;2023-02-03T16:16:24;16.60;2.60
254;DHT22;590;48.772;8.846;2023-02-03T16:19:13;16.60;2.60
254;DHT22;590;48.772;8.846;2023-02-03T16:21:53;16.60;2.60
254;DHT22;590;48.772;8.846;2023-02-03T16:24:38;16.60;2.60
254;DHT22;590;48.772;8.846;2023-02-03T16:27:20;16.60;2.50
254;DHT22;590;48.772;8.846;2023-02-03T16:29:48;16.60;2.60
254;DHT22;590;48.772;8.846;2023-02-03T16:32:33;16.60;2.60
254;DHT22;590;48.772;8.846;2023-02-03T16:35:19;16.60;2.60
254;DHT22;590;48.772;8.846;2023-02-03T16:38:11;16.60;2.60
254;DHT22;590;48.772;8.846;2023-02-03T16:40:58;16.60;2.50
254;DHT22;590;48.772;8.846;2023-02-03T16:43:45;16.60;2.50
254;DHT22;590;48.772;8.846;2023-02-03T16:46:30;16.60;2.50
254;DHT22;590;48.772;8.846;2023-02-03T16:49:27;16.60;2.60
254;DHT22;590;48.772;8.846;2023-02-03T16:52:15;16.60;2.60
254;DHT22;590;48.772;8.846;2023-02-03T16:58:31;16.60;2.50
254;DHT22;590;48.772;8.846;2023-02-03T17:01:05;16.60;2.50
254;DHT22;590;48.772;8.846;2023-02-03T17:03:56;16.60;2.50
254;DHT22;590;48.772;8.846;2023-02-03T17:06:24;16.60;2.50
254;DHT22;590;48.772;8.846;2023-02-03T17:08:52;16.60;2.50
254;DHT22;590;48.772;8.846;2023-02-03T17:11:21;16.60;2.50
254;DHT22;590;48.772;8.846;2023-02-03T17:13:51;16.60;2.50
254;DHT22;590;48.772;8.846;2023-02-03T17:16:21;16.70;2.60
254;DHT22;590;48.772;8.846;2023-02-03T17:18:50;16.70;2.60
254;DHT22;590;48.772;8.846;2023-02-03T17:21:19;16.60;2.50
254;DHT22;590;48.772;8.846;2023-02-03T17:23:48;16.60;2.50
254;DHT22;590;48.772;8.846;2023-02-03T17:26:16;16.60;2.50
254;DHT22;590;48.772;8.846;2023-02-03T17:28:44;16.60;2.60
254;DHT22;590;48.772;8.846;2023-02-03T17:31:15;16.60;2.50
254;DHT22;590;48.772;8.846;2023-02-03T17:33:44;16.70;2.70
254;DHT22;590;48.772;8.846;2023-02-03T17:36:14;16.70;2.70
254;DHT22;590;48.772;8.846;2023-02-03T17:38:44;16.70;2.60
254;DHT22;590;48.772;8.846;2023-02-03T17:41:30;16.70;2.70
254;DHT22;590;48.772;8.846;2023-02-03T17:44:15;16.70;2.70
254;DHT22;590;48.772;8.846;2023-02-03T17:47:05;16.70;2.70
254;DHT22;590;48.772;8.846;2023-02-03T17:49:52;16.70;2.70
254;DHT22;590;48.772;8.846;2023-02-03T17:52:40;16.70;2.70
254;DHT22;590;48.772;8.846;2023-02-03T17:55:25;16.70;2.70
254;DHT22;590;48.772;8.846;2023-02-03T17:57:54;16.60;2.60
254;DHT22;590;48.772;8.846;2023-02-03T18:00:26;16.70;2.70
254;DHT22;590;48.772;8.846;2023-02-03T18:02:56;16.70;2.70
254;DHT22;590;48.772;8.846;2023-02-03T18:05:24;16.70;2.80
254;DHT22;590;48.772;8.846;2023-02-03T18:07:52;16.70;2.80
254;DHT22;590;48.772;8.846;2023-02-03T18:10:20;16.70;2.80
254;DHT22;590;48.772;8.846;2023-02-03T18:12:48;16.70;2.80
254;DHT22;590;48.772;8.846;2023-02-03T18:15:34;16.70;2.80
254;DHT22;590;48.772;8.846;2023-02-03T18:18:22;16.60;2.60